ADDS METAR Data INFO
IDs: Format: Raw Decoded Include TAF

Data at: 1406 UTC 12 Dec 2017

KGAI 121356Z AUTO 24004KT 10SM CLR 04/M01 A2959 RMK AO2 SLP051 T00391011
KGAI 121256Z AUTO 30004KT 10SM FEW075 03/M01 A2960 RMK AO2 SLP054 T00281011
KGAI 121156Z AUTO 20005KT 10SM BKN120 04/M01 A2960 RMK AO2 SLP056 T00391011 10044 20039 56025
KGAI 121056Z AUTO 18006KT 10SM CLR 04/M01 A2960 RMK AO2 SLP056 T00441011
KGAI 120956Z AUTO 19005KT 10SM OVC100 04/M01 A2965 RMK AO2 SLP071 T00391011
KGAI 120856Z AUTO 17006KT 10SM FEW110 04/M01 A2968 RMK AO2 SLP081 T00391011 56036
KGAI 120756Z AUTO 16006KT 10SM FEW110 04/M01 A2971 RMK AO2 SLP090 T00391011
KGAI 120656Z AUTO 16008KT 10SM FEW100 04/M01 A2975 RMK AO2 SLP103 T00391006
KGAI 120556Z AUTO 15007KT 10SM FEW085 BKN110 04/M01 A2979 RMK AO2 SLP117 T00391006 10039 20022 58035
KGAI 120456Z AUTO 14009KT 10SM BKN110 04/M01 A2982 RMK AO2 SLP130 T00391006 400830000
KGAI 120356Z AUTO 15009KT 10SM CLR 04/M01 A2985 RMK AO2 SLP142 T00391011
KGAI 120256Z AUTO 14009KT 10SM CLR 03/M02 A2989 RMK AO2 SLP155 T00281022 58020
KGAI 120156Z AUTO 12007KT 10SM CLR 02/M03 A2991 RMK AO2 SLP161 T00221033 FZRANO
KGAI 120056Z AUTO 13007KT 10SM CLR 03/M03 A2993 RMK AO2 SLP167 T00281033
KGAI 112356Z AUTO 12006KT 10SM CLR 03/M04 A2995 RMK AO2 SLP173 T00331044 10083 20028 55008
KGAI 112256Z AUTO 12003KT 10SM CLR 04/M04 A2994 RMK AO2 SLP171 T00391044
KGAI 112156Z AUTO 15004KT 10SM FEW120 05/M04 A2996 RMK AO2 SLP178 T00501044
KGAI 112056Z AUTO 17003KT 10SM CLR 07/M03 A2998 RMK AO2 SLP183 T00721033 55015
KGAI 111956Z AUTO 17004KT 10SM CLR 08/M04 A2996 RMK AO2 SLP178 T00831044
KGAI 111856Z AUTO 23006KT 10SM CLR 07/M04 A2999 RMK AO2 SLP187 T00671039
KGAI 111756Z AUTO 21006KT 10SM CLR 07/M03 A3002 RMK AO2 SLP198 T00671033 10067 20000 58023
KGAI 111656Z AUTO 26008KT 240V300 10SM CLR 06/M04 A3005 RMK AO2 SLP209 T00611039
KGAI 111556Z AUTO 28008KT 10SM CLR 04/M04 A3008 RMK AO2 SLP219 T00441044
KGAI 111456Z AUTO 28007KT 10SM CLR 03/M04 A3009 RMK AO2 SLP221 T00331044 53011
KGAI 111356Z AUTO 00000KT 10SM CLR 02/M04 A3007 RMK AO2 SLP215 T00171039 FZRANO
KGAI 111256Z AUTO 00000KT 10SM OVC050 01/M02 A3006 RMK AO2 SLP212 T00061022 FZRANO
KGAI 111156Z AUTO 00000KT 10SM OVC050 01/M04 A3006 RMK AO2 SLP211 T00061039 10017 20000 53012 FZRANO
KGAI 111056Z AUTO 00000KT 10SM OVC050 01/M04 A3004 RMK AO2 SLP206 T00061039 FZRANO
KGAI 110956Z AUTO 00000KT 10SM OVC055 01/M04 A3003 RMK AO2 SLP201 T00111044 FZRANO
KGAI 110856Z AUTO 00000KT 10SM OVC060 01/M04 A3002 RMK AO2 SLP198 T00061044 52002 FZRANO
KGAI 110756Z AUTO 20004KT 10SM OVC065 01/M04 A3002 RMK AO2 SLP198 T00111044 FZRANO
KGAI 110656Z AUTO 19003KT 10SM OVC110 01/M05 A3001 RMK AO2 SLP195 T00111050 FZRANO
KGAI 110556Z AUTO 00000KT 10SM OVC110 01/M05 A3001 RMK AO2 SLP196 T00111050 10017 21022 58007 FZRANO
KGAI 110456Z AUTO 19004KT 10SM OVC070 02/M05 A3003 RMK AO2 SLP202 T00171050 400281044 FZRANO
KGAI 110356Z AUTO 21004KT 10SM OVC100 02/M06 A3003 RMK AO2 SLP201 T00171056 FZRANO
KGAI 110256Z AUTO 00000KT 10SM OVC110 01/M06 A3004 RMK AO2 SLP204 T00111056 58000 FZRANO